Time;durP1;ratioP1;P1;durP2;ratioP2;P2;SDS_P1;SDS_P2;PMS_P1;PMS_P2;Temp;Humidity;BMP_temperature;BMP_pressure;BME280_temperature;BME280_humidity;BME280_pressure;Samples;Min_cycle;Max_cycle;Signal;HPM_P1;HPM_P2
2023/12/09 00:00:44;;;;;;;13.07;7.37;;;3.00;99.90;;;;;;5055054;28;20205;-87
2023/12/09 00:03:10;;;;;;;16.30;7.93;;;3.00;99.90;;;;;;5055406;28;20181;-87
2023/12/09 00:05:35;;;;;;;18.97;7.73;;;3.10;99.90;;;;;;5055093;28;20294;-87
2023/12/09 00:08:01;;;;;;;16.10;7.60;;;3.00;99.90;;;;;;5055171;28;20186;-87
2023/12/09 00:10:27;;;;;;;14.73;7.33;;;3.00;99.90;;;;;;5054696;28;20271;-87
2023/12/09 00:12:54;;;;;;;12.73;7.10;;;3.10;99.90;;;;;;5055102;28;20181;-87
2023/12/09 00:15:20;;;;;;;13.60;7.07;;;3.10;99.90;;;;;;5053639;28;20232;-86
2023/12/09 00:17:46;;;;;;;15.17;7.63;;;3.10;99.90;;;;;;5053698;28;20228;-87
2023/12/09 00:20:12;;;;;;;13.70;6.70;;;3.10;99.90;;;;;;5054829;28;20184;-86
2023/12/09 00:22:38;;;;;;;15.43;7.73;;;3.10;99.90;;;;;;5053665;28;20256;-87
2023/12/09 00:25:06;;;;;;;15.97;7.90;;;3.10;99.90;;;;;;5053348;28;20272;-86
2023/12/09 00:27:31;;;;;;;12.57;7.23;;;3.10;99.90;;;;;;5053674;28;20205;-87
2023/12/09 00:29:57;;;;;;;13.60;7.20;;;3.10;99.90;;;;;;5052957;28;20676;-87
2023/12/09 00:32:22;;;;;;;13.23;6.97;;;3.00;99.90;;;;;;5053669;28;20208;-87
2023/12/09 00:34:48;;;;;;;14.50;7.47;;;3.00;99.90;;;;;;5053525;28;20585;-87
2023/12/09 00:37:13;;;;;;;13.40;7.50;;;3.00;99.90;;;;;;5053498;28;20220;-87
2023/12/09 00:39:39;;;;;;;13.77;7.40;;;3.10;99.90;;;;;;5045726;28;20181;-87
2023/12/09 00:42:04;;;;;;;14.90;7.83;;;3.10;99.90;;;;;;5053282;28;20181;-86
2023/12/09 00:44:30;;;;;;;16.73;8.33;;;3.10;99.90;;;;;;5054274;28;20165;-87
2023/12/09 00:46:55;;;;;;;18.63;8.53;;;3.10;99.90;;;;;;5053268;28;20639;-87
2023/12/09 00:49:21;;;;;;;15.00;7.60;;;3.10;99.90;;;;;;5052499;28;20193;-87
2023/12/09 00:51:47;;;;;;;16.40;7.73;;;3.10;99.90;;;;;;5054386;28;20701;-87
2023/12/09 00:54:12;;;;;;;12.30;6.60;;;3.10;99.90;;;;;;5052931;28;20208;-86
2023/12/09 00:56:38;;;;;;;15.97;7.47;;;3.10;99.90;;;;;;5053948;28;20196;-87
2023/12/09 00:59:04;;;;;;;13.53;6.77;;;3.10;99.90;;;;;;5053901;28;20173;-87
2023/12/09 01:01:29;;;;;;;13.53;7.00;;;3.10;99.90;;;;;;5052495;28;20205;-87
2023/12/09 01:03:55;;;;;;;15.97;8.10;;;3.20;99.90;;;;;;5054206;28;20265;-87
2023/12/09 01:06:20;;;;;;;16.03;8.00;;;3.20;99.90;;;;;;5053954;28;20216;-86
2023/12/09 01:08:46;;;;;;;15.47;8.33;;;3.20;99.90;;;;;;5052799;28;20180;-87
2023/12/09 01:11:11;;;;;;;12.27;7.50;;;3.20;99.90;;;;;;5053463;28;20638;-87
2023/12/09 01:13:37;;;;;;;15.87;8.53;;;3.20;99.90;;;;;;5053844;28;20173;-87
2023/12/09 01:16:03;;;;;;;14.73;8.20;;;3.20;99.90;;;;;;5052610;28;20213;-87
2023/12/09 01:18:28;;;;;;;15.20;8.77;;;3.20;99.90;;;;;;5052507;28;20201;-87
2023/12/09 01:20:54;;;;;;;15.13;7.93;;;3.20;99.90;;;;;;5052063;28;20177;-86
2023/12/09 01:23:19;;;;;;;17.73;9.07;;;3.20;99.90;;;;;;5052647;28;20221;-86
2023/12/09 01:25:45;;;;;;;18.50;9.83;;;3.20;99.90;;;;;;5053650;28;20284;-87
2023/12/09 01:28:11;;;;;;;17.13;10.43;;;3.20;99.90;;;;;;5052594;28;20182;-86
2023/12/09 01:30:36;;;;;;;14.80;8.63;;;3.20;99.90;;;;;;5053302;28;20189;-87
2023/12/09 01:33:02;;;;;;;17.53;8.33;;;3.10;99.90;;;;;;5052237;28;20185;-87
2023/12/09 01:35:28;;;;;;;21.13;9.60;;;3.20;99.90;;;;;;5052283;28;20214;-87
2023/12/09 01:37:53;;;;;;;15.97;9.10;;;3.20;99.90;;;;;;5052194;28;20179;-87
2023/12/09 01:40:19;;;;;;;16.90;8.63;;;3.20;99.90;;;;;;5051629;28;20181;-87
2023/12/09 01:42:44;;;;;;;15.93;7.57;;;3.20;99.90;;;;;;5053374;28;20322;-86
2023/12/09 01:45:10;;;;;;;17.57;7.83;;;3.30;99.90;;;;;;5053650;28;20180;-86
2023/12/09 01:47:38;;;;;;;13.60;7.93;;;3.30;99.90;;;;;;5052179;28;20195;-86
2023/12/09 01:50:04;;;;;;;15.80;8.00;;;3.30;99.90;;;;;;5051689;28;20200;-86
2023/12/09 01:52:34;;;;;;;12.93;7.40;;;3.40;99.90;;;;;;5051825;28;20272;-87
2023/12/09 01:55:00;;;;;;;15.07;7.53;;;3.40;99.90;;;;;;5052958;28;20216;-87
2023/12/09 01:57:27;;;;;;;19.67;8.50;;;3.40;99.90;;;;;;5051753;28;20242;-87
2023/12/09 01:59:53;;;;;;;18.40;8.37;;;3.40;99.90;;;;;;5051329;28;20177;-87
2023/12/09 02:02:19;;;;;;;17.57;8.07;;;3.40;99.90;;;;;;5051843;28;20248;-87
2023/12/09 02:04:44;;;;;;;14.57;7.83;;;3.40;99.90;;;;;;5052942;28;20648;-87
2023/12/09 02:07:10;;;;;;;17.40;8.30;;;3.40;99.90;;;;;;5051468;28;20208;-87
2023/12/09 02:09:39;;;;;;;15.20;7.63;;;3.30;99.90;;;;;;5051043;28;20189;-87
2023/12/09 02:12:19;;;;;;;15.97;7.80;;;3.30;99.90;;;;;;5088480;27;1285299;-86
2023/12/09 02:15:09;;;;;;;15.07;7.60;;;3.30;99.90;;;;;;5091881;28;20215;-88
2023/12/09 02:17:42;;;;;;;15.37;8.40;;;3.30;99.90;;;;;;5071525;28;20172;-86
2023/12/09 02:20:11;;;;;;;12.87;7.30;;;3.30;99.90;;;;;;5070941;28;20169;-86
2023/12/09 02:22:36;;;;;;;15.27;7.77;;;3.40;99.90;;;;;;5089662;28;20252;-86
2023/12/09 02:25:02;;;;;;;13.37;7.03;;;3.40;99.90;;;;;;5090124;28;20192;-86
2023/12/09 02:27:35;;;;;;;13.93;7.07;;;3.40;99.90;;;;;;5071673;28;20174;-86
2023/12/09 02:30:17;;;;;;;14.40;7.60;;;3.40;99.90;;;;;;5089113;28;20168;-86
2023/12/09 02:32:44;;;;;;;16.37;8.57;;;3.40;99.90;;;;;;5071280;28;20172;-84
2023/12/09 02:35:11;;;;;;;16.73;8.30;;;3.40;99.90;;;;;;5089360;28;20199;-86
2023/12/09 02:37:37;;;;;;;12.20;7.00;;;3.40;99.90;;;;;;5071199;28;20653;-86
2023/12/09 02:40:09;;;;;;;13.13;7.63;;;3.40;99.90;;;;;;5070544;28;20186;-86
2023/12/09 02:42:38;;;;;;;16.27;7.57;;;3.40;99.90;;;;;;5070751;28;20560;-86
2023/12/09 02:45:06;;;;;;;10.07;6.37;;;3.40;99.90;;;;;;5070877;28;20183;-86
2023/12/09 02:47:31;;;;;;;12.10;7.10;;;3.40;99.90;;;;;;5071082;28;20674;-86
2023/12/09 02:49:57;;;;;;;9.60;6.37;;;3.40;99.90;;;;;;5088685;28;20206;-86
2023/12/09 02:52:22;;;;;;;9.93;6.37;;;3.40;99.90;;;;;;5088799;28;20172;-87
2023/12/09 02:54:48;;;;;;;10.03;5.87;;;3.40;99.90;;;;;;5088787;28;20288;-86
2023/12/09 02:57:13;;;;;;;9.63;5.90;;;3.40;99.90;;;;;;5088737;28;20224;-86
2023/12/09 02:59:39;;;;;;;9.80;5.33;;;3.40;99.90;;;;;;5088073;28;20214;-86
2023/12/09 03:02:05;;;;;;;7.13;5.40;;;3.40;99.90;;;;;;5070702;28;20176;-86
2023/12/09 03:04:31;;;;;;;9.13;6.00;;;3.40;99.90;;;;;;5070776;28;20314;-87
2023/12/09 03:06:56;;;;;;;8.20;5.70;;;3.50;99.90;;;;;;5070324;28;20192;-86
2023/12/09 03:09:22;;;;;;;7.93;5.47;;;3.50;99.90;;;;;;5088154;28;20173;-86
2023/12/09 03:11:48;;;;;;;7.97;5.33;;;3.50;99.90;;;;;;5088309;28;20620;-86
2023/12/09 03:14:13;;;;;;;7.20;5.40;;;3.50;99.90;;;;;;5088426;28;20183;-86
2023/12/09 03:16:39;;;;;;;8.47;5.47;;;3.50;99.90;;;;;;5088656;28;20208;-86
2023/12/09 03:19:04;;;;;;;8.50;5.77;;;3.50;99.90;;;;;;5088371;28;20195;-86
2023/12/09 03:21:30;;;;;;;7.20;4.93;;;3.50;99.90;;;;;;5067839;28;20665;-86
2023/12/09 03:23:56;;;;;;;7.27;5.23;;;3.50;99.90;;;;;;5056642;28;20173;-86
2023/12/09 03:26:23;;;;;;;7.33;4.93;;;3.50;99.90;;;;;;5056895;28;20193;-86
2023/12/09 03:28:49;;;;;;;7.53;4.67;;;3.50;99.90;;;;;;5056803;28;20204;-86
2023/12/09 03:31:15;;;;;;;6.87;4.77;;;3.50;99.90;;;;;;5056399;28;20235;-86
2023/12/09 03:33:42;;;;;;;7.60;5.07;;;3.60;99.90;;;;;;5074762;28;20188;-86
2023/12/09 03:36:08;;;;;;;6.43;4.73;;;3.60;99.90;;;;;;5074393;28;20207;-86
2023/12/09 03:38:34;;;;;;;5.77;4.50;;;3.60;99.90;;;;;;5074625;28;20173;-86
2023/12/09 03:41:02;;;;;;;9.87;5.07;;;3.60;99.90;;;;;;5056293;28;20177;-86
2023/12/09 03:43:27;;;;;;;5.33;4.20;;;3.60;99.90;;;;;;5056536;28;20180;-86
2023/12/09 03:45:53;;;;;;;5.77;4.70;;;3.60;99.90;;;;;;5074558;28;20291;-85
2023/12/09 03:48:18;;;;;;;6.63;4.73;;;3.60;99.90;;;;;;5056563;28;20180;-86
2023/12/09 03:50:44;;;;;;;6.97;4.40;;;3.60;99.90;;;;;;5055959;28;20208;-86
2023/12/09 03:53:09;;;;;;;5.60;4.83;;;3.60;99.90;;;;;;5056618;28;20249;-86
2023/12/09 03:55:35;;;;;;;5.80;4.60;;;3.60;99.90;;;;;;5056189;28;20221;-86
2023/12/09 03:58:01;;;;;;;5.70;4.43;;;3.60;99.90;;;;;;5056110;28;20525;-86
2023/12/09 04:00:26;;;;;;;5.90;4.70;;;3.70;99.90;;;;;;5073775;28;20261;-86
2023/12/09 04:02:52;;;;;;;6.43;4.97;;;3.70;99.90;;;;;;5056405;28;20173;-86
2023/12/09 04:05:17;;;;;;;5.67;4.43;;;3.70;99.90;;;;;;5056198;28;20173;-86
2023/12/09 04:07:43;;;;;;;5.00;3.83;;;3.70;99.90;;;;;;5056136;28;20184;-86
2023/12/09 04:10:11;;;;;;;5.67;4.20;;;3.70;99.90;;;;;;5055476;28;20205;-87
2023/12/09 04:12:37;;;;;;;6.73;4.27;;;3.70;99.90;;;;;;5055851;28;20189;-86
2023/12/09 04:15:03;;;;;;;6.97;4.63;;;3.70;99.90;;;;;;5055972;28;20175;-87
2023/12/09 04:17:29;;;;;;;6.13;4.10;;;3.80;99.90;;;;;;5073901;28;20184;-86
2023/12/09 04:19:54;;;;;;;5.40;4.00;;;3.80;99.90;;;;;;5055381;28;20269;-86
2023/12/09 04:22:20;;;;;;;7.40;4.50;;;3.70;99.90;;;;;;5073706;28;20214;-86
2023/12/09 04:24:45;;;;;;;5.43;3.43;;;3.70;99.90;;;;;;5073615;28;20196;-86
2023/12/09 04:27:12;;;;;;;5.30;4.40;;;3.80;99.90;;;;;;5073391;28;20299;-86
2023/12/09 04:29:38;;;;;;;5.40;3.70;;;3.80;99.90;;;;;;5072908;28;20823;-86
2023/12/09 04:32:03;;;;;;;4.80;3.70;;;3.70;99.90;;;;;;5055593;28;20363;-87
2023/12/09 04:34:29;;;;;;;6.23;4.13;;;3.80;99.90;;;;;;5054604;28;20250;-86
2023/12/09 04:36:55;;;;;;;5.90;4.10;;;3.80;99.90;;;;;;5073379;28;20196;-86
2023/12/09 04:39:20;;;;;;;5.37;3.80;;;3.80;99.90;;;;;;5054797;28;20209;-86
2023/12/09 04:41:46;;;;;;;5.83;4.00;;;3.80;99.90;;;;;;5073173;28;20173;-86
2023/12/09 04:44:12;;;;;;;5.80;4.17;;;3.90;99.90;;;;;;5055297;28;20201;-86
2023/12/09 04:46:38;;;;;;;5.97;3.47;;;3.90;99.90;;;;;;5073223;28;20217;-86
2023/12/09 04:49:03;;;;;;;4.27;3.10;;;3.90;99.90;;;;;;5073096;28;20177;-86
2023/12/09 04:51:29;;;;;;;4.57;3.77;;;3.90;99.90;;;;;;5054326;28;20575;-86
2023/12/09 04:53:55;;;;;;;4.73;3.77;;;3.90;99.90;;;;;;5051040;28;20268;-88
2023/12/09 04:56:20;;;;;;;6.80;4.00;;;3.90;99.90;;;;;;5072846;28;20783;-86
2023/12/09 04:58:46;;;;;;;5.97;4.13;;;3.90;99.90;;;;;;5072627;28;20172;-87
2023/12/09 05:01:11;;;;;;;4.30;3.70;;;4.00;99.90;;;;;;5050658;28;20271;-89
2023/12/09 05:03:37;;;;;;;4.93;3.60;;;4.00;99.90;;;;;;5046997;28;20173;-86
2023/12/09 05:06:04;;;;;;;4.83;3.70;;;4.00;99.90;;;;;;5048694;28;20284;-86
2023/12/09 05:08:30;;;;;;;5.03;3.67;;;4.00;99.90;;;;;;5054433;28;20177;-86
2023/12/09 05:10:56;;;;;;;4.07;3.00;;;4.00;99.90;;;;;;5054395;28;20200;-86
2023/12/09 05:13:22;;;;;;;4.33;2.93;;;4.00;99.90;;;;;;5053250;28;20171;-86
2023/12/09 05:15:48;;;;;;;4.23;2.90;;;4.00;99.90;;;;;;5054893;28;20563;-86
2023/12/09 05:18:14;;;;;;;4.77;2.80;;;4.00;99.90;;;;;;5072231;28;20169;-86
2023/12/09 05:20:40;;;;;;;3.93;3.03;;;3.90;99.90;;;;;;5071918;28;20192;-86
2023/12/09 05:23:06;;;;;;;3.77;3.00;;;3.90;99.90;;;;;;5072564;28;20173;-85
2023/12/09 05:25:32;;;;;;;3.90;2.67;;;3.90;99.90;;;;;;5072471;28;20192;-86
2023/12/09 05:27:58;;;;;;;4.00;2.83;;;3.80;99.90;;;;;;5072541;28;20187;-85
2023/12/09 05:30:23;;;;;;;4.73;3.10;;;3.80;99.90;;;;;;5054236;28;20215;-86
2023/12/09 05:32:49;;;;;;;5.23;3.07;;;3.90;99.90;;;;;;5072528;28;20183;-87
2023/12/09 05:35:14;;;;;;;4.93;3.20;;;3.90;99.90;;;;;;5072375;28;20192;-86
2023/12/09 05:37:40;;;;;;;3.37;2.90;;;3.90;99.90;;;;;;5072466;28;20169;-85
2023/12/09 05:40:07;;;;;;;4.70;2.80;;;3.90;99.90;;;;;;5071693;28;20173;-86
2023/12/09 05:42:32;;;;;;;3.20;2.77;;;3.90;99.90;;;;;;5054539;28;20192;-84
2023/12/09 05:44:58;;;;;;;4.13;2.60;;;3.90;99.90;;;;;;5054277;28;20221;-84
2023/12/09 05:47:25;;;;;;;4.30;2.90;;;4.00;99.90;;;;;;5054522;28;20189;-86
2023/12/09 05:49:50;;;;;;;4.30;3.27;;;3.90;99.90;;;;;;5053963;28;20192;-86
2023/12/09 05:52:16;;;;;;;6.50;3.70;;;3.80;99.90;;;;;;5071920;28;20668;-86
2023/12/09 05:54:42;;;;;;;4.53;3.20;;;3.80;99.90;;;;;;5072077;28;20252;-88
2023/12/09 05:57:07;;;;;;;3.33;2.73;;;3.80;99.90;;;;;;5073034;28;20218;-84
2023/12/09 05:59:33;;;;;;;3.47;3.07;;;3.80;99.90;;;;;;5054213;28;20185;-84
2023/12/09 06:01:58;;;;;;;4.13;2.80;;;3.80;99.90;;;;;;5054912;28;20188;-82
2023/12/09 06:04:24;;;;;;;3.90;3.00;;;3.80;99.90;;;;;;5072602;28;20180;-84
2023/12/09 06:06:49;;;;;;;4.90;3.07;;;3.80;99.90;;;;;;5054660;28;20220;-83
2023/12/09 06:09:15;;;;;;;4.53;2.90;;;3.80;99.90;;;;;;5052026;28;20172;-85
2023/12/09 06:11:41;;;;;;;4.00;3.03;;;3.80;99.90;;;;;;5053824;28;20306;-84
2023/12/09 06:14:09;;;;;;;3.47;2.70;;;3.80;99.90;;;;;;5054558;28;20196;-84
2023/12/09 06:16:35;;;;;;;4.20;2.87;;;3.80;99.90;;;;;;5054686;28;20193;-84
2023/12/09 06:19:00;;;;;;;4.93;3.00;;;3.90;99.90;;;;;;5054430;28;20194;-84
2023/12/09 06:21:26;;;;;;;3.87;2.53;;;3.90;99.90;;;;;;5072016;28;20209;-84
2023/12/09 06:23:52;;;;;;;3.07;2.47;;;3.80;99.90;;;;;;5054061;28;20173;-85
2023/12/09 06:26:18;;;;;;;3.10;2.57;;;3.80;99.90;;;;;;5071806;28;20264;-84
2023/12/09 06:28:44;;;;;;;3.93;2.60;;;3.80;99.90;;;;;;5071951;28;20177;-85
2023/12/09 06:31:13;;;;;;;4.83;2.60;;;3.80;99.90;;;;;;5053151;28;20633;-85
2023/12/09 06:33:38;;;;;;;2.90;2.50;;;3.80;99.90;;;;;;5072092;28;20173;-86
2023/12/09 06:36:05;;;;;;;3.43;2.57;;;3.90;99.90;;;;;;5053739;28;20192;-85
2023/12/09 06:38:33;;;;;;;4.13;2.60;;;3.90;99.90;;;;;;5053638;28;20169;-84
2023/12/09 06:40:58;;;;;;;4.00;2.70;;;3.90;99.90;;;;;;5053940;28;20560;-82
2023/12/09 06:43:24;;;;;;;3.10;2.80;;;4.00;99.90;;;;;;5054591;28;20177;-83
2023/12/09 06:45:50;;;;;;;3.10;2.80;;;4.00;99.90;;;;;;5072131;28;20217;-84
2023/12/09 06:48:15;;;;;;;3.63;2.63;;;4.00;99.90;;;;;;5072201;28;20188;-82
2023/12/09 06:50:42;;;;;;;5.37;3.30;;;4.00;99.90;;;;;;5071685;28;20203;-82
2023/12/09 06:53:12;;;;;;;4.50;3.40;;;4.00;99.90;;;;;;5054262;28;20177;-84
2023/12/09 06:55:37;;;;;;;5.70;3.70;;;4.00;99.90;;;;;;5054383;28;20286;-85
2023/12/09 06:58:03;;;;;;;4.13;3.67;;;4.00;99.90;;;;;;5056771;28;20198;-84
2023/12/09 07:00:28;;;;;;;5.73;3.10;;;4.00;99.90;;;;;;5057620;28;20223;-84
2023/12/09 07:02:54;;;;;;;3.47;3.00;;;4.00;99.90;;;;;;5057771;28;20267;-84
2023/12/09 07:05:20;;;;;;;3.83;2.93;;;4.00;99.90;;;;;;5058012;28;20177;-83
2023/12/09 07:07:48;;;;;;;4.53;2.90;;;4.00;99.90;;;;;;5075475;28;20560;-82
2023/12/09 07:10:13;;;;;;;4.43;2.90;;;4.00;99.90;;;;;;5057001;28;20177;-83
2023/12/09 07:12:39;;;;;;;4.13;2.70;;;4.10;99.90;;;;;;5075754;28;20219;-83
2023/12/09 07:15:06;;;;;;;4.47;3.23;;;4.00;99.90;;;;;;5075751;28;20173;-83
2023/12/09 07:17:31;;;;;;;4.23;3.27;;;4.10;99.90;;;;;;5058168;28;20222;-82
2023/12/09 07:19:59;;;;;;;3.13;2.60;;;4.10;99.90;;;;;;5057144;28;20170;-83
2023/12/09 07:22:25;;;;;;;3.37;2.33;;;4.20;99.90;;;;;;5057460;28;20218;-83
2023/12/09 07:24:51;;;;;;;3.70;2.13;;;4.20;99.90;;;;;;5057712;28;20169;-83
2023/12/09 07:27:17;;;;;;;3.87;2.20;;;4.20;99.90;;;;;;5057321;28;20281;-82
2023/12/09 07:29:43;;;;;;;2.50;2.00;;;4.30;99.90;;;;;;5073198;28;20526;-83
2023/12/09 07:32:09;;;;;;;2.13;1.93;;;4.30;99.90;;;;;;5055915;28;20198;-83
2023/12/09 07:34:35;;;;;;;5.47;2.30;;;4.40;99.90;;;;;;5056592;28;20211;-83
2023/12/09 07:37:01;;;;;;;2.80;2.30;;;4.40;99.90;;;;;;5056795;28;20251;-82
2023/12/09 07:39:26;;;;;;;4.27;3.10;;;4.40;99.90;;;;;;5056456;28;20173;-82
2023/12/09 07:41:52;;;;;;;4.10;2.87;;;4.50;99.90;;;;;;5056973;28;20181;-83
2023/12/09 07:44:19;;;;;;;4.50;3.43;;;4.50;99.90;;;;;;5057242;28;20173;-83
2023/12/09 07:46:45;;;;;;;4.33;3.47;;;4.50;99.90;;;;;;5056935;28;20197;-83
2023/12/09 07:49:10;;;;;;;4.50;3.17;;;4.50;99.90;;;;;;5074559;28;20184;-82
2023/12/09 07:51:36;;;;;;;5.93;3.33;;;4.50;99.90;;;;;;5056669;28;20197;-83
2023/12/09 07:54:01;;;;;;;5.90;3.43;;;4.50;99.90;;;;;;5056977;28;20259;-83
2023/12/09 07:56:27;;;;;;;5.43;3.33;;;4.60;99.90;;;;;;5074620;28;20188;-84
2023/12/09 07:58:53;;;;;;;5.10;3.20;;;4.60;99.90;;;;;;5074634;28;20181;-84
2023/12/09 08:01:18;;;;;;;6.03;3.20;;;4.60;99.90;;;;;;5056155;28;20177;-84
2023/12/09 08:03:44;;;;;;;4.63;3.50;;;4.70;99.90;;;;;;5056519;28;20265;-84
2023/12/09 08:06:11;;;;;;;5.77;3.57;;;4.70;99.90;;;;;;5074239;28;20280;-84
2023/12/09 08:08:37;;;;;;;6.33;3.53;;;4.70;99.90;;;;;;5056462;28;20260;-84
2023/12/09 08:11:03;;;;;;;5.40;4.20;;;4.70;99.90;;;;;;5056132;28;20207;-85
2023/12/09 08:13:29;;;;;;;7.77;4.50;;;4.70;99.90;;;;;;5074765;28;20196;-85
2023/12/09 08:15:55;;;;;;;5.23;4.10;;;4.70;99.90;;;;;;5056172;28;20289;-84
2023/12/09 08:18:20;;;;;;;5.87;4.47;;;4.70;99.90;;;;;;5073997;28;20198;-83
2023/12/09 08:20:46;;;;;;;6.90;4.83;;;4.70;99.90;;;;;;5073949;28;20190;-83
2023/12/09 08:23:12;;;;;;;9.60;5.30;;;4.70;99.90;;;;;;5110449;22;20636;-83
2023/12/09 08:25:37;;;;;;;12.47;6.43;;;4.70;99.90;;;;;;5015950;28;20187;-86
2023/12/09 08:28:05;;;;;;;11.97;8.90;;;4.70;99.90;;;;;;5016031;28;20173;-87
2023/12/09 08:30:31;;;;;;;8.07;5.40;;;4.70;99.90;;;;;;5015191;28;20203;-87
2023/12/09 08:32:57;;;;;;;8.20;6.33;;;4.70;99.90;;;;;;5033756;28;20175;-88
2023/12/09 08:35:23;;;;;;;7.23;4.80;;;4.70;99.90;;;;;;5015724;28;20198;-85
2023/12/09 08:37:48;;;;;;;6.20;4.50;;;4.80;99.90;;;;;;5015884;28;20257;-87
2023/12/09 08:40:14;;;;;;;7.57;5.13;;;4.70;99.90;;;;;;5015155;28;20175;-89
2023/12/09 08:42:41;;;;;;;7.87;5.30;;;4.70;99.90;;;;;;5033638;28;20206;-88
2023/12/09 08:45:09;;;;;;;6.33;4.70;;;4.80;99.90;;;;;;5033141;28;20655;-90
2023/12/09 08:47:36;;;;;;;6.90;4.90;;;4.80;99.90;;;;;;5033374;28;20259;-90
2023/12/09 08:50:02;;;;;;;7.47;4.87;;;4.80;99.90;;;;;;5015494;28;20183;-87
2023/12/09 08:52:27;;;;;;;7.80;5.23;;;4.80;99.90;;;;;;5033083;28;20178;-87
2023/12/09 08:54:53;;;;;;;6.60;5.00;;;4.80;99.90;;;;;;5015476;28;20248;-85
2023/12/09 08:57:18;;;;;;;8.27;4.90;;;4.80;99.90;;;;;;5033171;28;20209;-90
2023/12/09 08:59:44;;;;;;;7.73;5.27;;;4.90;99.90;;;;;;5014894;28;20458;-89
2023/12/09 09:02:10;;;;;;;9.47;4.87;;;4.90;99.90;;;;;;5015611;28;20269;-89
2023/12/09 09:04:35;;;;;;;6.83;5.20;;;4.90;99.90;;;;;;5015092;28;20204;-90
2023/12/09 09:07:01;;;;;;;6.17;4.57;;;5.00;99.90;;;;;;5032700;28;20712;-89
2023/12/09 09:09:26;;;;;;;5.80;4.43;;;5.10;99.90;;;;;;5014794;28;20186;-88
2023/12/09 09:11:52;;;;;;;6.50;4.07;;;5.10;99.90;;;;;;5032730;28;20209;-88
2023/12/09 09:14:17;;;;;;;5.97;3.30;;;5.20;99.90;;;;;;5014943;28;20194;-90
2023/12/09 09:16:43;;;;;;;7.97;3.47;;;5.20;99.90;;;;;;5015173;28;20171;-88
2023/12/09 09:19:08;;;;;;;7.23;3.73;;;5.30;99.90;;;;;;5014773;28;20175;-89
2023/12/09 09:21:34;;;;;;;7.43;3.87;;;5.30;99.90;;;;;;5031758;28;20676;-89
2023/12/09 09:23:59;;;;;;;7.77;4.33;;;5.30;99.90;;;;;;5032496;28;20234;-90
2023/12/09 09:26:25;;;;;;;7.60;4.20;;;5.40;99.90;;;;;;5014708;28;20184;-88
2023/12/09 09:28:51;;;;;;;4.67;3.77;;;5.50;99.90;;;;;;5014847;28;20314;-89
2023/12/09 09:31:16;;;;;;;6.57;4.20;;;5.50;99.90;;;;;;5031808;28;20197;-86
2023/12/09 09:33:42;;;;;;;5.77;3.87;;;5.60;99.90;;;;;;5014582;28;20574;-90
2023/12/09 09:36:08;;;;;;;7.07;4.07;;;5.60;99.90;;;;;;5014648;28;20179;-89
2023/12/09 09:38:34;;;;;;;5.53;3.80;;;5.60;99.90;;;;;;5032337;28;20198;-88
2023/12/09 09:41:11;;;;;;;5.73;4.00;;;5.60;99.90;;;;;;5014288;28;20173;-88
2023/12/09 09:43:44;;;;;;;5.13;3.37;;;5.60;99.90;;;;;;5032043;28;20652;-90
2023/12/09 09:46:12;;;;;;;5.43;3.40;;;5.60;99.90;;;;;;5032092;28;20550;-89
2023/12/09 09:48:39;;;;;;;5.03;3.30;;;5.60;99.90;;;;;;5031956;28;20176;-91
2023/12/09 09:51:07;;;;;;;6.70;3.30;;;5.50;99.90;;;;;;5013709;28;20226;-91
2023/12/09 09:53:44;;;;;;;4.40;3.27;;;5.50;99.90;;;;;;5032151;28;20200;-90
2023/12/09 09:56:11;;;;;;;7.30;5.00;;;5.60;99.90;;;;;;5032206;28;20177;-91
2023/12/09 09:58:37;;;;;;;4.20;3.03;;;5.60;99.90;;;;;;5031959;28;20211;-90
2023/12/09 10:01:05;;;;;;;7.13;3.20;;;5.60;99.90;;;;;;5013524;28;20182;-90
2023/12/09 10:03:31;;;;;;;5.43;3.20;;;5.60;99.90;;;;;;5028464;28;20291;-91
2023/12/09 10:05:58;;;;;;;5.67;3.90;;;5.60;99.90;;;;;;5014081;28;20249;-91
2023/12/09 10:08:24;;;;;;;4.77;3.43;;;5.60;99.90;;;;;;5014230;28;20185;-88
2023/12/09 10:10:50;;;;;;;4.63;3.23;;;5.60;99.90;;;;;;5031339;28;20200;-90
2023/12/09 10:13:16;;;;;;;3.53;2.70;;;5.60;99.90;;;;;;5031551;28;20247;-85
2023/12/09 10:15:41;;;;;;;2.97;2.53;;;5.60;99.90;;;;;;5031611;28;20167;-91
2023/12/09 10:18:13;;;;;;;3.23;2.50;;;5.70;99.90;;;;;;5014292;28;20256;-90
2023/12/09 10:20:39;;;;;;;4.33;2.80;;;5.80;99.90;;;;;;5013483;28;20185;-90
2023/12/09 10:23:05;;;;;;;3.37;3.07;;;5.80;99.90;;;;;;5031655;28;20183;-90
2023/12/09 10:25:31;;;;;;;3.63;2.60;;;5.80;99.90;;;;;;5031650;28;20248;-90
2023/12/09 10:27:57;;;;;;;3.33;2.70;;;5.80;99.90;;;;;;5013996;28;20276;-91
2023/12/09 10:30:23;;;;;;;4.27;2.50;;;5.80;99.90;;;;;;5005137;28;20759;-90
2023/12/09 10:32:49;;;;;;;3.33;2.70;;;5.70;99.90;;;;;;5015883;28;20173;-87
2023/12/09 10:35:16;;;;;;;4.27;2.90;;;5.70;99.90;;;;;;5017928;28;20197;-85
2023/12/09 10:37:43;;;;;;;5.17;2.80;;;5.60;99.90;;;;;;5018083;28;20176;-86
2023/12/09 10:40:09;;;;;;;4.83;3.20;;;5.60;99.90;;;;;;5035162;28;20176;-88
2023/12/09 10:42:38;;;;;;;3.90;3.20;;;5.60;99.90;;;;;;5032693;28;20173;-85
2023/12/09 10:45:08;;;;;;;4.57;3.37;;;5.50;99.90;;;;;;5017852;28;20281;-86
2023/12/09 10:47:34;;;;;;;4.87;3.50;;;5.50;99.90;;;;;;5035659;28;20239;-86
2023/12/09 10:50:00;;;;;;;5.63;3.60;;;5.50;99.90;;;;;;5035137;28;20172;-86
2023/12/09 10:52:26;;;;;;;4.60;3.50;;;5.50;99.90;;;;;;5017681;28;20201;-87
2023/12/09 10:54:51;;;;;;;5.50;3.63;;;5.50;99.90;;;;;;5035370;28;20192;-86
2023/12/09 10:57:18;;;;;;;4.37;3.50;;;5.60;99.90;;;;;;5017431;28;20559;-84
2023/12/09 10:59:44;;;;;;;4.80;3.60;;;5.60;99.90;;;;;;5034990;28;20570;-86
2023/12/09 11:02:11;;;;;;;6.43;3.57;;;5.60;99.90;;;;;;5017846;28;20189;-86
2023/12/09 11:04:37;;;;;;;4.77;3.30;;;5.60;99.90;;;;;;5035264;28;20304;-85
2023/12/09 11:07:04;;;;;;;5.63;3.90;;;5.60;99.90;;;;;;5013311;28;20273;-86
2023/12/09 11:09:32;;;;;;;4.57;3.50;;;5.70;99.90;;;;;;5033791;28;20249;-85
2023/12/09 11:11:58;;;;;;;4.80;3.47;;;5.80;99.90;;;;;;5017125;28;20192;-86
2023/12/09 11:14:27;;;;;;;5.73;3.90;;;5.80;99.90;;;;;;5017090;28;20255;-85
2023/12/09 11:16:53;;;;;;;6.07;4.00;;;5.80;99.90;;;;;;5034842;28;20173;-88
2023/12/09 11:19:22;;;;;;;8.13;3.87;;;5.90;99.90;;;;;;5034640;28;20189;-85
2023/12/09 11:21:48;;;;;;;5.47;3.57;;;6.00;99.90;;;;;;5035289;28;20181;-90
2023/12/09 11:24:15;;;;;;;5.40;3.47;;;6.20;99.90;;;;;;5016956;28;20215;-87
2023/12/09 11:26:45;;;;;;;4.27;3.40;;;6.40;99.90;;;;;;5017020;28;20190;-87
2023/12/09 11:29:15;;;;;;;6.83;3.40;;;6.50;99.90;;;;;;5034730;28;20186;-88
2023/12/09 11:31:48;;;;;;;6.90;4.07;;;6.50;99.90;;;;;;5016754;28;20216;-85
2023/12/09 11:34:16;;;;;;;5.63;4.47;;;6.40;99.90;;;;;;5016887;28;20755;-86
2023/12/09 11:36:42;;;;;;;6.07;4.30;;;6.40;99.90;;;;;;5016977;28;20182;-86
2023/12/09 11:39:13;;;;;;;8.50;4.27;;;6.40;99.90;;;;;;5034250;28;20177;-87
2023/12/09 11:41:40;;;;;;;7.03;3.87;;;6.30;99.90;;;;;;5016866;28;20184;-82
2023/12/09 11:44:08;;;;;;;4.70;3.97;;;6.30;99.90;;;;;;5034255;28;20211;-83
2023/12/09 11:46:35;;;;;;;7.33;3.87;;;6.20;99.90;;;;;;5016998;28;20176;-86
2023/12/09 11:49:02;;;;;;;7.83;4.03;;;6.20;99.90;;;;;;5016587;28;20177;-86
2023/12/09 11:51:29;;;;;;;5.17;3.30;;;6.30;99.90;;;;;;5033776;28;20227;-86
2023/12/09 11:53:56;;;;;;;4.53;3.80;;;6.20;99.90;;;;;;5016495;28;20204;-85
2023/12/09 11:56:21;;;;;;;4.40;3.47;;;6.20;99.90;;;;;;5016747;28;20176;-85
2023/12/09 11:58:47;;;;;;;6.60;5.03;;;6.20;99.90;;;;;;5016522;28;20185;-86
2023/12/09 12:01:12;;;;;;;4.50;3.57;;;6.20;99.90;;;;;;5015928;28;20187;-85
2023/12/09 12:03:38;;;;;;;5.67;3.57;;;6.20;99.90;;;;;;5033859;28;20207;-86
2023/12/09 12:06:04;;;;;;;5.93;3.90;;;6.30;99.90;;;;;;5016219;28;20189;-86
2023/12/09 12:08:30;;;;;;;7.47;4.00;;;6.30;99.90;;;;;;5016167;28;20191;-86
2023/12/09 12:10:56;;;;;;;4.53;3.33;;;6.40;99.90;;;;;;5015752;28;20594;-86
2023/12/09 12:13:21;;;;;;;5.50;4.10;;;6.40;99.90;;;;;;5016187;28;20559;-85
2023/12/09 12:15:48;;;;;;;6.07;3.57;;;6.40;99.90;;;;;;5033957;28;20182;-86
2023/12/09 12:18:14;;;;;;;7.07;3.70;;;6.40;99.90;;;;;;5033916;28;20185;-85
2023/12/09 12:20:39;;;;;;;7.27;3.53;;;6.30;99.90;;;;;;5015777;28;20216;-85
2023/12/09 12:23:05;;;;;;;6.33;4.03;;;6.30;99.90;;;;;;5015951;28;20223;-85
2023/12/09 12:25:30;;;;;;;6.40;3.50;;;6.30;99.90;;;;;;5016162;28;20189;-87
2023/12/09 12:27:56;;;;;;;6.53;4.07;;;6.30;99.90;;;;;;5033654;28;20593;-85
2023/12/09 12:30:23;;;;;;;5.60;3.90;;;6.30;99.90;;;;;;5033108;28;20189;-86
2023/12/09 12:32:55;;;;;;;6.30;4.07;;;6.30;99.90;;;;;;5033465;28;20199;-85
2023/12/09 12:35:22;;;;;;;6.43;4.10;;;6.30;99.90;;;;;;5015619;28;20228;-85
2023/12/09 12:37:48;;;;;;;6.17;4.10;;;6.30;99.90;;;;;;5015991;28;20180;-86
2023/12/09 12:40:14;;;;;;;7.33;4.47;;;6.20;99.90;;;;;;5031822;28;20211;-85
2023/12/09 12:42:40;;;;;;;7.63;4.17;;;6.20;99.90;;;;;;5013265;28;20184;-85
2023/12/09 12:45:25;;;;;;;7.57;4.70;;;6.20;99.90;;;;;;5015270;28;20208;-85
2023/12/09 12:47:50;;;;;;;6.67;4.50;;;6.10;99.90;;;;;;5032872;28;20175;-84
2023/12/09 12:50:16;;;;;;;7.20;4.23;;;6.10;99.90;;;;;;5014657;28;20180;-86